sensor_id;sensor_type;location;lat;lon;timestamp;temperature;humidity
7117;DHT22;3600;48.568;7.870;2023-08-21T00:01:47;24.50;99.90
7117;DHT22;3600;48.568;7.870;2023-08-21T00:04:14;24.40;99.90
7117;DHT22;3600;48.568;7.870;2023-08-21T00:06:41;24.10;99.90
7117;DHT22;3600;48.568;7.870;2023-08-21T00:09:08;24.00;99.90
7117;DHT22;3600;48.568;7.870;2023-08-21T00:11:35;23.90;99.90
7117;DHT22;3600;48.568;7.870;2023-08-21T00:14:02;24.00;99.90
7117;DHT22;3600;48.568;7.870;2023-08-21T00:16:29;24.00;99.90
7117;DHT22;3600;48.568;7.870;2023-08-21T00:18:56;23.80;99.90
7117;DHT22;3600;48.568;7.870;2023-08-21T00:21:23;23.70;99.90
7117;DHT22;3600;48.568;7.870;2023-08-21T00:23:50;23.70;99.90
7117;DHT22;3600;48.568;7.870;2023-08-21T00:26:17;23.60;99.90
7117;DHT22;3600;48.568;7.870;2023-08-21T00:28:44;23.60;99.90
7117;DHT22;3600;48.568;7.870;2023-08-21T00:31:11;23.50;99.90
7117;DHT22;3600;48.568;7.870;2023-08-21T00:33:38;23.60;99.90
7117;DHT22;3600;48.568;7.870;2023-08-21T00:36:04;23.60;99.90
7117;DHT22;3600;48.568;7.870;2023-08-21T00:38:31;23.50;99.90
7117;DHT22;3600;48.568;7.870;2023-08-21T00:40:58;23.50;99.90
7117;DHT22;3600;48.568;7.870;2023-08-21T00:43:25;23.50;99.90
7117;DHT22;3600;48.568;7.870;2023-08-21T00:45:52;23.50;99.90
7117;DHT22;3600;48.568;7.870;2023-08-21T00:48:19;23.60;99.90
7117;DHT22;3600;48.568;7.870;2023-08-21T00:50:46;23.60;99.90
7117;DHT22;3600;48.568;7.870;2023-08-21T00:53:13;23.60;99.90
7117;DHT22;3600;48.568;7.870;2023-08-21T00:55:40;23.40;99.90
7117;DHT22;3600;48.568;7.870;2023-08-21T00:58:10;23.30;99.90
7117;DHT22;3600;48.568;7.870;2023-08-21T01:00:41;23.30;99.90
7117;DHT22;3600;48.568;7.870;2023-08-21T01:03:08;23.40;99.90
7117;DHT22;3600;48.568;7.870;2023-08-21T01:05:35;23.50;99.90
7117;DHT22;3600;48.568;7.870;2023-08-21T01:08:05;23.50;99.90
7117;DHT22;3600;48.568;7.870;2023-08-21T01:10:50;23.60;99.90
7117;DHT22;3600;48.568;7.870;2023-08-21T01:16:05;23.50;99.90
7117;DHT22;3600;48.568;7.870;2023-08-21T01:18:34;23.40;99.90
7117;DHT22;3600;48.568;7.870;2023-08-21T01:21:03;23.20;99.90
7117;DHT22;3600;48.568;7.870;2023-08-21T01:23:35;23.10;99.90
7117;DHT22;3600;48.568;7.870;2023-08-21T01:26:03;23.00;99.90
7117;DHT22;3600;48.568;7.870;2023-08-21T01:28:35;22.90;99.90
7117;DHT22;3600;48.568;7.870;2023-08-21T01:31:26;23.00;99.90
7117;DHT22;3600;48.568;7.870;2023-08-21T01:34:00;22.90;99.90
7117;DHT22;3600;48.568;7.870;2023-08-21T01:36:28;22.70;99.90
7117;DHT22;3600;48.568;7.870;2023-08-21T01:38:55;22.70;99.90
7117;DHT22;3600;48.568;7.870;2023-08-21T01:41:26;22.90;99.90
7117;DHT22;3600;48.568;7.870;2023-08-21T01:43:52;22.90;99.90
7117;DHT22;3600;48.568;7.870;2023-08-21T01:46:20;22.80;99.90
7117;DHT22;3600;48.568;7.870;2023-08-21T01:48:47;22.90;99.90
7117;DHT22;3600;48.568;7.870;2023-08-21T01:51:14;22.80;99.90
7117;DHT22;3600;48.568;7.870;2023-08-21T01:53:40;22.80;99.90
7117;DHT22;3600;48.568;7.870;2023-08-21T01:56:07;22.80;99.90
7117;DHT22;3600;48.568;7.870;2023-08-21T01:58:34;22.90;99.90
7117;DHT22;3600;48.568;7.870;2023-08-21T02:01:01;23.00;99.90
7117;DHT22;3600;48.568;7.870;2023-08-21T02:03:28;22.80;99.90
7117;DHT22;3600;48.568;7.870;2023-08-21T02:05:57;23.00;99.90
7117;DHT22;3600;48.568;7.870;2023-08-21T02:08:31;22.80;99.90
7117;DHT22;3600;48.568;7.870;2023-08-21T02:11:05;22.70;99.90
7117;DHT22;3600;48.568;7.870;2023-08-21T02:13:35;22.70;99.90
7117;DHT22;3600;48.568;7.870;2023-08-21T02:16:02;22.70;99.90
7117;DHT22;3600;48.568;7.870;2023-08-21T02:18:33;22.70;99.90
7117;DHT22;3600;48.568;7.870;2023-08-21T02:21:01;22.60;99.90
7117;DHT22;3600;48.568;7.870;2023-08-21T02:23:34;22.50;99.90
7117;DHT22;3600;48.568;7.870;2023-08-21T02:26:04;22.50;99.90
7117;DHT22;3600;48.568;7.870;2023-08-21T02:28:31;22.40;99.90
7117;DHT22;3600;48.568;7.870;2023-08-21T02:31:00;22.50;99.90
7117;DHT22;3600;48.568;7.870;2023-08-21T02:33:38;22.60;99.90
7117;DHT22;3600;48.568;7.870;2023-08-21T02:36:07;22.50;99.90
7117;DHT22;3600;48.568;7.870;2023-08-21T02:38:35;22.50;99.90
7117;DHT22;3600;48.568;7.870;2023-08-21T02:41:04;22.50;99.90
7117;DHT22;3600;48.568;7.870;2023-08-21T02:43:31;22.40;99.90
7117;DHT22;3600;48.568;7.870;2023-08-21T02:45:59;22.40;99.90
7117;DHT22;3600;48.568;7.870;2023-08-21T02:48:26;22.40;99.90
7117;DHT22;3600;48.568;7.870;2023-08-21T02:50:56;22.40;99.90
7117;DHT22;3600;48.568;7.870;2023-08-21T02:53:27;22.30;99.90
7117;DHT22;3600;48.568;7.870;2023-08-21T02:55:54;22.30;99.90
7117;DHT22;3600;48.568;7.870;2023-08-21T02:58:21;22.30;99.90
7117;DHT22;3600;48.568;7.870;2023-08-21T03:00:48;22.20;99.90
7117;DHT22;3600;48.568;7.870;2023-08-21T03:03:15;22.10;99.90
7117;DHT22;3600;48.568;7.870;2023-08-21T03:05:44;22.10;99.90
7117;DHT22;3600;48.568;7.870;2023-08-21T03:08:11;22.10;99.90
7117;DHT22;3600;48.568;7.870;2023-08-21T03:10:39;22.10;99.90
7117;DHT22;3600;48.568;7.870;2023-08-21T03:13:06;21.90;99.90
7117;DHT22;3600;48.568;7.870;2023-08-21T03:15:34;21.80;99.90
7117;DHT22;3600;48.568;7.870;2023-08-21T03:18:01;21.80;99.90
7117;DHT22;3600;48.568;7.870;2023-08-21T03:20:28;21.80;99.90
7117;DHT22;3600;48.568;7.870;2023-08-21T03:22:55;21.70;99.90
7117;DHT22;3600;48.568;7.870;2023-08-21T03:25:22;21.90;99.90
7117;DHT22;3600;48.568;7.870;2023-08-21T03:27:49;21.80;99.90
7117;DHT22;3600;48.568;7.870;2023-08-21T03:30:16;21.50;99.90
7117;DHT22;3600;48.568;7.870;2023-08-21T03:32:43;21.50;99.90
7117;DHT22;3600;48.568;7.870;2023-08-21T03:35:11;21.50;99.90
7117;DHT22;3600;48.568;7.870;2023-08-21T03:37:38;21.50;99.90
7117;DHT22;3600;48.568;7.870;2023-08-21T03:40:05;21.60;99.90
7117;DHT22;3600;48.568;7.870;2023-08-21T03:42:32;21.60;99.90
7117;DHT22;3600;48.568;7.870;2023-08-21T03:44:59;21.60;99.90
7117;DHT22;3600;48.568;7.870;2023-08-21T03:47:26;21.60;99.90
7117;DHT22;3600;48.568;7.870;2023-08-21T03:49:53;21.60;99.90
7117;DHT22;3600;48.568;7.870;2023-08-21T03:52:21;21.60;99.90
7117;DHT22;3600;48.568;7.870;2023-08-21T03:54:48;21.40;99.90
7117;DHT22;3600;48.568;7.870;2023-08-21T03:57:17;21.30;99.90
7117;DHT22;3600;48.568;7.870;2023-08-21T03:59:44;21.10;99.90
7117;DHT22;3600;48.568;7.870;2023-08-21T04:02:11;21.10;99.90
7117;DHT22;3600;48.568;7.870;2023-08-21T04:04:38;21.10;99.90
7117;DHT22;3600;48.568;7.870;2023-08-21T04:07:05;21.20;99.90
7117;DHT22;3600;48.568;7.870;2023-08-21T04:09:32;21.10;99.90
7117;DHT22;3600;48.568;7.870;2023-08-21T04:12:00;21.00;99.90
7117;DHT22;3600;48.568;7.870;2023-08-21T04:14:32;20.90;99.90
7117;DHT22;3600;48.568;7.870;2023-08-21T04:17:03;21.00;99.90
7117;DHT22;3600;48.568;7.870;2023-08-21T04:19:30;21.10;99.90
7117;DHT22;3600;48.568;7.870;2023-08-21T04:21:59;21.40;99.90
7117;DHT22;3600;48.568;7.870;2023-08-21T04:24:26;21.40;99.90
7117;DHT22;3600;48.568;7.870;2023-08-21T04:26:53;21.50;99.90
7117;DHT22;3600;48.568;7.870;2023-08-21T04:29:26;21.50;99.90
7117;DHT22;3600;48.568;7.870;2023-08-21T04:31:58;21.40;99.90
7117;DHT22;3600;48.568;7.870;2023-08-21T04:34:26;21.30;99.90
7117;DHT22;3600;48.568;7.870;2023-08-21T04:37:09;21.40;99.90
7117;DHT22;3600;48.568;7.870;2023-08-21T04:39:37;21.50;99.90
7117;DHT22;3600;48.568;7.870;2023-08-21T04:42:06;21.50;99.90
7117;DHT22;3600;48.568;7.870;2023-08-21T04:44:40;21.50;99.90
7117;DHT22;3600;48.568;7.870;2023-08-21T04:47:33;21.40;99.90
7117;DHT22;3600;48.568;7.870;2023-08-21T04:50:12;21.40;99.90
7117;DHT22;3600;48.568;7.870;2023-08-21T04:52:42;21.40;99.90
7117;DHT22;3600;48.568;7.870;2023-08-21T04:55:11;21.50;99.90
7117;DHT22;3600;48.568;7.870;2023-08-21T04:57:41;21.60;99.90
7117;DHT22;3600;48.568;7.870;2023-08-21T05:00:10;21.70;99.90
7117;DHT22;3600;48.568;7.870;2023-08-21T05:02:40;21.60;99.90
7117;DHT22;3600;48.568;7.870;2023-08-21T05:05:07;21.60;99.90
7117;DHT22;3600;48.568;7.870;2023-08-21T05:07:38;21.60;99.90
7117;DHT22;3600;48.568;7.870;2023-08-21T05:10:06;21.60;99.90
7117;DHT22;3600;48.568;7.870;2023-08-21T05:12:35;21.70;99.90
7117;DHT22;3600;48.568;7.870;2023-08-21T05:15:06;21.60;99.90
7117;DHT22;3600;48.568;7.870;2023-08-21T05:17:36;21.50;99.90
7117;DHT22;3600;48.568;7.870;2023-08-21T05:20:09;21.60;99.90
7117;DHT22;3600;48.568;7.870;2023-08-21T05:22:41;21.60;99.90
7117;DHT22;3600;48.568;7.870;2023-08-21T05:25:11;21.60;99.90
7117;DHT22;3600;48.568;7.870;2023-08-21T05:27:40;21.60;99.90
7117;DHT22;3600;48.568;7.870;2023-08-21T05:30:13;21.50;99.90
7117;DHT22;3600;48.568;7.870;2023-08-21T05:32:41;21.40;99.90
7117;DHT22;3600;48.568;7.870;2023-08-21T05:35:13;21.60;99.90
7117;DHT22;3600;48.568;7.870;2023-08-21T05:37:40;21.70;99.90
7117;DHT22;3600;48.568;7.870;2023-08-21T05:40:13;21.70;99.90
7117;DHT22;3600;48.568;7.870;2023-08-21T05:42:49;21.60;99.90
7117;DHT22;3600;48.568;7.870;2023-08-21T05:45:19;21.70;99.90
7117;DHT22;3600;48.568;7.870;2023-08-21T05:47:47;21.80;99.90
7117;DHT22;3600;48.568;7.870;2023-08-21T05:50:18;21.90;99.90
7117;DHT22;3600;48.568;7.870;2023-08-21T05:52:51;21.80;99.90
7117;DHT22;3600;48.568;7.870;2023-08-21T05:55:21;21.90;99.90
7117;DHT22;3600;48.568;7.870;2023-08-21T05:57:48;22.00;99.90
7117;DHT22;3600;48.568;7.870;2023-08-21T06:00:35;22.00;99.90
7117;DHT22;3600;48.568;7.870;2023-08-21T06:03:12;22.10;99.90
7117;DHT22;3600;48.568;7.870;2023-08-21T06:05:53;22.10;99.90
7117;DHT22;3600;48.568;7.870;2023-08-21T06:08:36;22.10;99.90
7117;DHT22;3600;48.568;7.870;2023-08-21T06:11:09;22.20;99.90
7117;DHT22;3600;48.568;7.870;2023-08-21T06:13:50;22.20;99.90
7117;DHT22;3600;48.568;7.870;2023-08-21T06:16:18;22.40;99.90
7117;DHT22;3600;48.568;7.870;2023-08-21T06:19:11;22.40;99.90
7117;DHT22;3600;48.568;7.870;2023-08-21T06:21:50;22.40;99.90
7117;DHT22;3600;48.568;7.870;2023-08-21T06:24:21;22.40;99.90
7117;DHT22;3600;48.568;7.870;2023-08-21T06:27:13;22.50;99.90
7117;DHT22;3600;48.568;7.870;2023-08-21T06:29:45;22.60;99.90
7117;DHT22;3600;48.568;7.870;2023-08-21T06:32:12;22.70;99.90
7117;DHT22;3600;48.568;7.870;2023-08-21T06:34:41;22.80;99.90
7117;DHT22;3600;48.568;7.870;2023-08-21T06:37:22;22.80;99.90
7117;DHT22;3600;48.568;7.870;2023-08-21T06:40:11;22.90;99.90
7117;DHT22;3600;48.568;7.870;2023-08-21T06:42:38;23.10;99.90
7117;DHT22;3600;48.568;7.870;2023-08-21T06:45:09;23.20;99.90
7117;DHT22;3600;48.568;7.870;2023-08-21T06:47:47;23.20;99.90
7117;DHT22;3600;48.568;7.870;2023-08-21T06:50:24;23.20;99.90
7117;DHT22;3600;48.568;7.870;2023-08-21T06:53:03;23.30;99.90
7117;DHT22;3600;48.568;7.870;2023-08-21T06:55:34;23.30;99.90
7117;DHT22;3600;48.568;7.870;2023-08-21T06:58:03;23.40;99.90
7117;DHT22;3600;48.568;7.870;2023-08-21T07:00:30;23.50;99.90
7117;DHT22;3600;48.568;7.870;2023-08-21T07:03:00;23.50;99.90
7117;DHT22;3600;48.568;7.870;2023-08-21T07:05:28;23.60;99.90
7117;DHT22;3600;48.568;7.870;2023-08-21T07:07:55;23.70;99.90
7117;DHT22;3600;48.568;7.870;2023-08-21T07:10:25;23.70;99.90
7117;DHT22;3600;48.568;7.870;2023-08-21T07:12:59;23.70;99.90
7117;DHT22;3600;48.568;7.870;2023-08-21T07:15:26;23.70;99.90
7117;DHT22;3600;48.568;7.870;2023-08-21T07:17:59;23.80;99.90
7117;DHT22;3600;48.568;7.870;2023-08-21T07:20:26;23.60;99.90
7117;DHT22;3600;48.568;7.870;2023-08-21T07:22:53;23.80;99.90
7117;DHT22;3600;48.568;7.870;2023-08-21T07:25:27;23.70;99.90
7117;DHT22;3600;48.568;7.870;2023-08-21T07:27:55;23.80;99.90
7117;DHT22;3600;48.568;7.870;2023-08-21T07:30:28;23.90;99.90
7117;DHT22;3600;48.568;7.870;2023-08-21T07:32:57;24.10;99.90
7117;DHT22;3600;48.568;7.870;2023-08-21T07:35:24;24.00;99.90
7117;DHT22;3600;48.568;7.870;2023-08-21T07:37:51;24.10;99.90
7117;DHT22;3600;48.568;7.870;2023-08-21T07:40:23;24.30;99.90
7117;DHT22;3600;48.568;7.870;2023-08-21T07:42:53;24.20;99.90
7117;DHT22;3600;48.568;7.870;2023-08-21T07:45:22;24.20;99.90
7117;DHT22;3600;48.568;7.870;2023-08-21T07:47:49;24.30;99.90
7117;DHT22;3600;48.568;7.870;2023-08-21T07:50:37;24.30;99.90
7117;DHT22;3600;48.568;7.870;2023-08-21T07:53:04;24.50;99.90
7117;DHT22;3600;48.568;7.870;2023-08-21T07:55:44;24.50;99.90
7117;DHT22;3600;48.568;7.870;2023-08-21T07:58:19;24.60;99.90
7117;DHT22;3600;48.568;7.870;2023-08-21T08:00:46;24.60;99.90
7117;DHT22;3600;48.568;7.870;2023-08-21T08:03:13;24.60;99.90
7117;DHT22;3600;48.568;7.870;2023-08-21T08:05:41;24.70;99.90
7117;DHT22;3600;48.568;7.870;2023-08-21T08:08:20;24.80;99.90
7117;DHT22;3600;48.568;7.870;2023-08-21T08:10:47;24.80;99.90
7117;DHT22;3600;48.568;7.870;2023-08-21T08:13:14;24.80;99.90
7117;DHT22;3600;48.568;7.870;2023-08-21T08:15:40;24.90;99.90
7117;DHT22;3600;48.568;7.870;2023-08-21T08:18:11;25.00;99.90
7117;DHT22;3600;48.568;7.870;2023-08-21T08:20:39;25.20;99.90
7117;DHT22;3600;48.568;7.870;2023-08-21T08:23:06;25.20;99.90
7117;DHT22;3600;48.568;7.870;2023-08-21T08:25:33;25.20;99.90
7117;DHT22;3600;48.568;7.870;2023-08-21T08:28:00;25.00;99.90
7117;DHT22;3600;48.568;7.870;2023-08-21T08:30:27;25.30;99.90
7117;DHT22;3600;48.568;7.870;2023-08-21T08:32:54;25.20;99.90
7117;DHT22;3600;48.568;7.870;2023-08-21T08:35:21;25.30;99.90
7117;DHT22;3600;48.568;7.870;2023-08-21T08:37:49;25.30;99.90
7117;DHT22;3600;48.568;7.870;2023-08-21T08:40:16;25.30;99.90
7117;DHT22;3600;48.568;7.870;2023-08-21T08:42:43;25.60;99.90
7117;DHT22;3600;48.568;7.870;2023-08-21T08:45:13;25.60;99.90
7117;DHT22;3600;48.568;7.870;2023-08-21T08:47:41;25.60;99.90
7117;DHT22;3600;48.568;7.870;2023-08-21T08:50:09;25.70;99.90
7117;DHT22;3600;48.568;7.870;2023-08-21T08:52:38;25.70;99.90
7117;DHT22;3600;48.568;7.870;2023-08-21T08:55:07;25.90;99.90
7117;DHT22;3600;48.568;7.870;2023-08-21T08:57:34;25.90;99.90
7117;DHT22;3600;48.568;7.870;2023-08-21T09:00:02;25.80;99.90
7117;DHT22;3600;48.568;7.870;2023-08-21T09:02:32;26.00;99.90
7117;DHT22;3600;48.568;7.870;2023-08-21T09:05:00;26.20;99.90
7117;DHT22;3600;48.568;7.870;2023-08-21T09:07:27;26.10;99.90
7117;DHT22;3600;48.568;7.870;2023-08-21T09:09:55;26.30;99.90
7117;DHT22;3600;48.568;7.870;2023-08-21T09:12:22;26.40;99.90
7117;DHT22;3600;48.568;7.870;2023-08-21T09:14:49;26.50;99.90
7117;DHT22;3600;48.568;7.870;2023-08-21T09:17:18;26.50;99.90
7117;DHT22;3600;48.568;7.870;2023-08-21T09:19:48;26.50;99.90
7117;DHT22;3600;48.568;7.870;2023-08-21T09:22:16;26.50;99.90
7117;DHT22;3600;48.568;7.870;2023-08-21T09:27:33;26.70;99.90
7117;DHT22;3600;48.568;7.870;2023-08-21T09:30:09;26.90;99.90
7117;DHT22;3600;48.568;7.870;2023-08-21T09:32:56;27.00;99.90
7117;DHT22;3600;48.568;7.870;2023-08-21T09:35:23;27.20;99.90
7117;DHT22;3600;48.568;7.870;2023-08-21T09:37:51;27.20;99.90
7117;DHT22;3600;48.568;7.870;2023-08-21T09:40:21;27.40;99.90
7117;DHT22;3600;48.568;7.870;2023-08-21T09:42:52;27.50;99.90
7117;DHT22;3600;48.568;7.870;2023-08-21T09:45:25;27.60;99.90
7117;DHT22;3600;48.568;7.870;2023-08-21T09:47:53;27.50;99.90
7117;DHT22;3600;48.568;7.870;2023-08-21T09:50:21;27.60;99.90
7117;DHT22;3600;48.568;7.870;2023-08-21T09:52:49;27.60;99.90
7117;DHT22;3600;48.568;7.870;2023-08-21T09:55:17;27.60;99.90
7117;DHT22;3600;48.568;7.870;2023-08-21T09:57:45;27.70;99.90
7117;DHT22;3600;48.568;7.870;2023-08-21T10:00:14;27.90;99.90
7117;DHT22;3600;48.568;7.870;2023-08-21T10:02:51;27.70;99.90
7117;DHT22;3600;48.568;7.870;2023-08-21T10:05:19;27.80;99.90
7117;DHT22;3600;48.568;7.870;2023-08-21T10:07:50;27.80;99.90
7117;DHT22;3600;48.568;7.870;2023-08-21T10:10:17;28.20;99.90
7117;DHT22;3600;48.568;7.870;2023-08-21T10:12:44;28.30;99.90
7117;DHT22;3600;48.568;7.870;2023-08-21T10:15:11;28.30;99.90
7117;DHT22;3600;48.568;7.870;2023-08-21T10:17:39;28.40;99.90
7117;DHT22;3600;48.568;7.870;2023-08-21T10:20:07;28.50;99.90
7117;DHT22;3600;48.568;7.870;2023-08-21T10:22:48;28.30;99.90
7117;DHT22;3600;48.568;7.870;2023-08-21T10:25:19;28.50;99.90
7117;DHT22;3600;48.568;7.870;2023-08-21T10:27:54;28.70;99.90
7117;DHT22;3600;48.568;7.870;2023-08-21T10:30:25;28.70;99.90
7117;DHT22;3600;48.568;7.870;2023-08-21T10:32:54;28.80;99.90
7117;DHT22;3600;48.568;7.870;2023-08-21T10:35:30;28.90;99.90
7117;DHT22;3600;48.568;7.870;2023-08-21T10:38:17;29.00;99.90
7117;DHT22;3600;48.568;7.870;2023-08-21T10:41:04;29.10;99.90
7117;DHT22;3600;48.568;7.870;2023-08-21T10:43:43;29.10;99.90
7117;DHT22;3600;48.568;7.870;2023-08-21T10:46:12;29.50;99.90
7117;DHT22;3600;48.568;7.870;2023-08-21T10:48:39;29.60;99.90
7117;DHT22;3600;48.568;7.870;2023-08-21T10:51:07;29.70;99.90
7117;DHT22;3600;48.568;7.870;2023-08-21T10:53:35;29.40;99.90
7117;DHT22;3600;48.568;7.870;2023-08-21T10:56:12;29.40;99.90
7117;DHT22;3600;48.568;7.870;2023-08-21T10:58:42;29.50;99.90
7117;DHT22;3600;48.568;7.870;2023-08-21T11:01:18;29.60;99.90
7117;DHT22;3600;48.568;7.870;2023-08-21T11:03:50;29.90;99.90
7117;DHT22;3600;48.568;7.870;2023-08-21T11:06:22;29.70;99.90
7117;DHT22;3600;48.568;7.870;2023-08-21T11:08:50;29.50;99.90
7117;DHT22;3600;48.568;7.870;2023-08-21T11:11:17;29.70;99.90
7117;DHT22;3600;48.568;7.870;2023-08-21T11:13:54;30.20;99.90
7117;DHT22;3600;48.568;7.870;2023-08-21T11:16:24;30.40;99.90
7117;DHT22;3600;48.568;7.870;2023-08-21T11:18:51;30.30;99.90
7117;DHT22;3600;48.568;7.870;2023-08-21T11:21:23;30.30;99.90
7117;DHT22;3600;48.568;7.870;2023-08-21T11:23:52;30.30;99.90
7117;DHT22;3600;48.568;7.870;2023-08-21T11:26:21;30.60;99.90
7117;DHT22;3600;48.568;7.870;2023-08-21T11:28:48;30.60;99.90
7117;DHT22;3600;48.568;7.870;2023-08-21T11:31:16;30.50;99.90
7117;DHT22;3600;48.568;7.870;2023-08-21T11:33:51;30.50;99.90
7117;DHT22;3600;48.568;7.870;2023-08-21T11:36:19;30.70;99.90
7117;DHT22;3600;48.568;7.870;2023-08-21T11:38:59;30.70;99.90
7117;DHT22;3600;48.568;7.870;2023-08-21T11:41:26;30.90;99.90
7117;DHT22;3600;48.568;7.870;2023-08-21T11:43:57;30.80;99.90
7117;DHT22;3600;48.568;7.870;2023-08-21T11:46:27;30.80;99.90
7117;DHT22;3600;48.568;7.870;2023-08-21T11:48:54;30.90;99.90
7117;DHT22;3600;48.568;7.870;2023-08-21T11:51:21;31.00;99.90
7117;DHT22;3600;48.568;7.870;2023-08-21T11:53:48;30.90;99.90
7117;DHT22;3600;48.568;7.870;2023-08-21T11:56:18;31.30;99.90
7117;DHT22;3600;48.568;7.870;2023-08-21T11:58:48;31.40;99.90
7117;DHT22;3600;48.568;7.870;2023-08-21T12:01:21;31.40;99.90
7117;DHT22;3600;48.568;7.870;2023-08-21T12:03:48;31.50;99.90
7117;DHT22;3600;48.568;7.870;2023-08-21T12:06:22;31.60;99.90
7117;DHT22;3600;48.568;7.870;2023-08-21T12:08:50;31.20;99.90
7117;DHT22;3600;48.568;7.870;2023-08-21T12:11:17;31.30;99.90
7117;DHT22;3600;48.568;7.870;2023-08-21T12:13:44;31.40;99.90
7117;DHT22;3600;48.568;7.870;2023-08-21T12:16:11;31.10;99.90
7117;DHT22;3600;48.568;7.870;2023-08-21T12:18:38;31.40;99.90
7117;DHT22;3600;48.568;7.870;2023-08-21T12:21:05;31.80;99.90
7117;DHT22;3600;48.568;7.870;2023-08-21T12:23:34;31.80;99.90
7117;DHT22;3600;48.568;7.870;2023-08-21T12:26:01;31.80;99.90
7117;DHT22;3600;48.568;7.870;2023-08-21T12:28:27;31.90;99.90
7117;DHT22;3600;48.568;7.870;2023-08-21T12:30:54;32.00;99.90
7117;DHT22;3600;48.568;7.870;2023-08-21T12:33:21;31.70;99.90
7117;DHT22;3600;48.568;7.870;2023-08-21T12:35:50;31.90;99.90
7117;DHT22;3600;48.568;7.870;2023-08-21T12:38:19;31.80;99.90
7117;DHT22;3600;48.568;7.870;2023-08-21T12:40:48;31.60;99.90
7117;DHT22;3600;48.568;7.870;2023-08-21T12:43:16;31.60;99.90
7117;DHT22;3600;48.568;7.870;2023-08-21T12:45:44;31.60;99.90
7117;DHT22;3600;48.568;7.870;2023-08-21T12:48:12;31.50;99.90
7117;DHT22;3600;48.568;7.870;2023-08-21T12:50:39;31.90;99.90
7117;DHT22;3600;48.568;7.870;2023-08-21T12:53:08;32.30;99.90
7117;DHT22;3600;48.568;7.870;2023-08-21T12:55:35;32.10;99.90
7117;DHT22;3600;48.568;7.870;2023-08-21T12:58:02;32.30;99.90
7117;DHT22;3600;48.568;7.870;2023-08-21T13:00:29;32.20;99.90
7117;DHT22;3600;48.568;7.870;2023-08-21T13:02:56;31.80;99.90
7117;DHT22;3600;48.568;7.870;2023-08-21T13:05:23;32.00;99.90
7117;DHT22;3600;48.568;7.870;2023-08-21T13:08:10;32.10;99.90
7117;DHT22;3600;48.568;7.870;2023-08-21T13:10:44;32.10;99.90
7117;DHT22;3600;48.568;7.870;2023-08-21T13:13:10;32.30;99.90
7117;DHT22;3600;48.568;7.870;2023-08-21T13:15:37;32.50;99.90
7117;DHT22;3600;48.568;7.870;2023-08-21T13:18:06;32.10;99.90
7117;DHT22;3600;48.568;7.870;2023-08-21T13:20:33;32.40;99.90
7117;DHT22;3600;48.568;7.870;2023-08-21T13:23:03;32.40;99.90
7117;DHT22;3600;48.568;7.870;2023-08-21T13:25:32;32.60;99.90
7117;DHT22;3600;48.568;7.870;2023-08-21T13:28:02;32.60;99.90
7117;DHT22;3600;48.568;7.870;2023-08-21T13:30:30;32.60;99.90
7117;DHT22;3600;48.568;7.870;2023-08-21T13:33:03;32.40;99.90
7117;DHT22;3600;48.568;7.870;2023-08-21T13:35:31;32.70;99.90
7117;DHT22;3600;48.568;7.870;2023-08-21T13:38:02;32.70;99.90
7117;DHT22;3600;48.568;7.870;2023-08-21T13:40:36;32.40;99.90
7117;DHT22;3600;48.568;7.870;2023-08-21T13:43:08;32.30;99.90
7117;DHT22;3600;48.568;7.870;2023-08-21T13:46:00;32.30;99.90
7117;DHT22;3600;48.568;7.870;2023-08-21T13:48:31;32.70;99.90
7117;DHT22;3600;48.568;7.870;2023-08-21T13:51:01;33.00;99.90
7117;DHT22;3600;48.568;7.870;2023-08-21T13:53:28;32.70;99.90
7117;DHT22;3600;48.568;7.870;2023-08-21T13:55:55;33.00;99.90
7117;DHT22;3600;48.568;7.870;2023-08-21T13:58:28;32.80;99.90
7117;DHT22;3600;48.568;7.870;2023-08-21T14:00:55;33.40;99.90
7117;DHT22;3600;48.568;7.870;2023-08-21T14:03:24;32.70;99.90
7117;DHT22;3600;48.568;7.870;2023-08-21T14:06:11;32.60;99.90
7117;DHT22;3600;48.568;7.870;2023-08-21T14:08:40;32.50;99.90
7117;DHT22;3600;48.568;7.870;2023-08-21T14:11:07;32.70;99.90
7117;DHT22;3600;48.568;7.870;2023-08-21T14:13:37;32.30;99.90
7117;DHT22;3600;48.568;7.870;2023-08-21T14:16:04;32.40;99.90
7117;DHT22;3600;48.568;7.870;2023-08-21T14:18:45;32.50;99.90
7117;DHT22;3600;48.568;7.870;2023-08-21T14:21:30;32.50;99.90
7117;DHT22;3600;48.568;7.870;2023-08-21T14:24:00;33.50;99.90
7117;DHT22;3600;48.568;7.870;2023-08-21T14:26:30;32.90;99.90
7117;DHT22;3600;48.568;7.870;2023-08-21T14:28:57;33.40;99.90
7117;DHT22;3600;48.568;7.870;2023-08-21T14:31:24;33.40;99.50
7117;DHT22;3600;48.568;7.870;2023-08-21T14:33:55;33.10;99.60
7117;DHT22;3600;48.568;7.870;2023-08-21T14:36:22;32.80;99.90
7117;DHT22;3600;48.568;7.870;2023-08-21T14:38:48;32.80;99.90
7117;DHT22;3600;48.568;7.870;2023-08-21T14:41:15;32.90;99.90
7117;DHT22;3600;48.568;7.870;2023-08-21T14:43:43;32.90;99.10
7117;DHT22;3600;48.568;7.870;2023-08-21T14:46:10;33.20;99.30
7117;DHT22;3600;48.568;7.870;2023-08-21T14:48:38;33.20;99.20
7117;DHT22;3600;48.568;7.870;2023-08-21T14:51:05;33.10;98.60
7117;DHT22;3600;48.568;7.870;2023-08-21T14:53:34;33.10;99.10
7117;DHT22;3600;48.568;7.870;2023-08-21T14:56:01;33.00;98.90
7117;DHT22;3600;48.568;7.870;2023-08-21T14:58:28;33.40;99.20
7117;DHT22;3600;48.568;7.870;2023-08-21T15:00:57;33.00;99.40
7117;DHT22;3600;48.568;7.870;2023-08-21T15:03:24;33.10;99.10
7117;DHT22;3600;48.568;7.870;2023-08-21T15:05:51;32.90;98.90
7117;DHT22;3600;48.568;7.870;2023-08-21T15:08:18;32.90;99.90
7117;DHT22;3600;48.568;7.870;2023-08-21T15:10:45;32.80;99.20
7117;DHT22;3600;48.568;7.870;2023-08-21T15:13:12;32.70;99.50
7117;DHT22;3600;48.568;7.870;2023-08-21T15:15:49;32.60;97.80
7117;DHT22;3600;48.568;7.870;2023-08-21T15:18:19;33.10;97.60
7117;DHT22;3600;48.568;7.870;2023-08-21T15:20:46;33.30;98.90
7117;DHT22;3600;48.568;7.870;2023-08-21T15:23:13;32.60;99.60
7117;DHT22;3600;48.568;7.870;2023-08-21T15:25:40;32.60;98.80
7117;DHT22;3600;48.568;7.870;2023-08-21T15:28:10;32.70;98.00
7117;DHT22;3600;48.568;7.870;2023-08-21T15:30:37;32.70;97.60
7117;DHT22;3600;48.568;7.870;2023-08-21T15:33:06;32.90;98.70
7117;DHT22;3600;48.568;7.870;2023-08-21T15:35:35;32.60;99.30
7117;DHT22;3600;48.568;7.870;2023-08-21T15:38:04;32.50;99.90
7117;DHT22;3600;48.568;7.870;2023-08-21T15:40:34;32.60;99.70
7117;DHT22;3600;48.568;7.870;2023-08-21T15:43:02;32.50;99.90
7117;DHT22;3600;48.568;7.870;2023-08-21T15:45:30;32.50;98.90
7117;DHT22;3600;48.568;7.870;2023-08-21T15:47:57;32.60;99.50
7117;DHT22;3600;48.568;7.870;2023-08-21T15:50:24;32.50;98.90
7117;DHT22;3600;48.568;7.870;2023-08-21T15:52:54;32.60;99.70
7117;DHT22;3600;48.568;7.870;2023-08-21T15:55:23;32.60;98.20
7117;DHT22;3600;48.568;7.870;2023-08-21T15:57:50;32.60;99.40
7117;DHT22;3600;48.568;7.870;2023-08-21T16:00:17;32.40;99.40
7117;DHT22;3600;48.568;7.870;2023-08-21T16:02:44;32.60;99.80
7117;DHT22;3600;48.568;7.870;2023-08-21T16:05:11;32.60;98.70
7117;DHT22;3600;48.568;7.870;2023-08-21T16:07:38;32.30;98.70
7117;DHT22;3600;48.568;7.870;2023-08-21T16:10:08;32.30;98.40
7117;DHT22;3600;48.568;7.870;2023-08-21T16:12:38;32.30;99.40
7117;DHT22;3600;48.568;7.870;2023-08-21T16:15:07;32.30;98.30
7117;DHT22;3600;48.568;7.870;2023-08-21T16:17:41;32.20;98.70
7117;DHT22;3600;48.568;7.870;2023-08-21T16:20:11;32.00;99.50
7117;DHT22;3600;48.568;7.870;2023-08-21T16:22:42;32.00;99.20
7117;DHT22;3600;48.568;7.870;2023-08-21T16:25:09;32.00;99.80